WetterOnline ( https://www.wetteronline.at )

Wetter aktuell Feldberg Gipfel

Aktuelles Wetter: Feldberg/Schwarzwald (1493m)

6-stündlich | Neueste Meldungen
Ortszeit Temperatur Wetter
So, 22.09. 2:00 13.9° C leicht bewölkt
Sa, 21.09. 20:00 12.9° C wolkenlos
Sa, 21.09. 14:00 13.9° C wolkenlos
Sa, 21.09. 8:00 12.0° C wolkenlos
Sa, 21.09. 2:00 9.8° C wolkenlos
Fr, 20.09. 20:00 7.9° C wolkenlos
Fr, 20.09. 14:00 8.6° C fast wolkenlos
Fr, 20.09. 8:00 4.2° C fast wolkenlos
Ortszeit Temperatur Wetter
So, 22.09. 2:00 13.9° C leicht bewölkt
So, 22.09. 1:40 14.2° C leicht bewölkt
So, 22.09. 1:30 15.0° C leicht bewölkt
So, 22.09. 1:20 15.0° C leicht bewölkt
So, 22.09. 1:10 14.9° C wolkig
So, 22.09. 1:00 14.2° C leicht bewölkt
So, 22.09. 0:50 14.2° C leicht bewölkt
So, 22.09. 0:30 13.9° C fast wolkenlos
So, 22.09. 0:00 14.0° C wolkenlos
Sa, 21.09. 23:30 13.8° C wolkenlos
Sa, 21.09. 23:00 13.4° C wolkenlos
Ortszeit Relative Feuchte Sichtweite
So, 22.09. 2:00 53% >70 km
Sa, 21.09. 20:00 65% 45 km
Sa, 21.09. 14:00 67% 40 km
Sa, 21.09. 8:00 54% 60 km
Sa, 21.09. 2:00 35% 65 km
Fr, 20.09. 20:00 45% >70 km
Fr, 20.09. 14:00 38% >70 km
Fr, 20.09. 8:00 48% 50 km
Ortszeit Relative Feuchte Sichtweite
So, 22.09. 2:00 53% >70 km
So, 22.09. 1:40 50% -
So, 22.09. 1:30 39% 65 km
So, 22.09. 1:20 39% -
So, 22.09. 1:10 39% -
So, 22.09. 1:00 45% 65 km
So, 22.09. 0:50 45% -
So, 22.09. 0:30 42% >70 km
So, 22.09. 0:00 44% 65 km
Sa, 21.09. 23:30 35% >70 km
Sa, 21.09. 23:00 33% >70 km
Ortszeit Niederschlagsmenge Niederschlagsart
So, 22.09. 2:00 0.0 l/m2 in 6 Std. -
Sa, 21.09. 20:00 0.0 l/m2 in 12 Std. -
Sa, 21.09. 14:00 0.0 l/m2 in 6 Std. -
Sa, 21.09. 8:00 0.0 l/m2 in 12 Std. -
Sa, 21.09. 2:00 0.0 l/m2 in 6 Std. -
Fr, 20.09. 20:00 0.0 l/m2 in 12 Std. -
Fr, 20.09. 14:00 0.0 l/m2 in 6 Std. -
Fr, 20.09. 8:00 0.0 l/m2 in 12 Std. -
Ortszeit Niederschlagsmenge Niederschlagsart
So, 22.09. 2:00 0.0 l/m2 in 1 Std. -
So, 22.09. 1:40 keine Meldung -
So, 22.09. 1:30 0.0 l/m2 in 1 Std. -
So, 22.09. 1:20 keine Meldung -
So, 22.09. 1:10 keine Meldung -
So, 22.09. 1:00 0.0 l/m2 in 1 Std. -
So, 22.09. 0:50 keine Meldung -
So, 22.09. 0:30 0.0 l/m2 in 1 Std. -
So, 22.09. 0:00 0.0 l/m2 in 1 Std. -
Sa, 21.09. 23:30 0.0 l/m2 in 1 Std. -
Sa, 21.09. 23:00 0.0 l/m2 in 1 Std. -
Ortszeit Stärke Spitze Richtung
km/h Bft. km/h Grad Sektor
So, 22.09. 2:00 9 2 37 190° S
Sa, 21.09. 20:00 19 3 22 110° O
Sa, 21.09. 14:00 9 2 31 20° N
Sa, 21.09. 8:00 13 3 39 260° W
Sa, 21.09. 2:00 36 5 50 120° SO
Fr, 20.09. 20:00 44 6 50 110° O
Fr, 20.09. 14:00 30 5 63 90° O
Fr, 20.09. 8:00 50 6 69 110° O
Ortszeit Stärke Spitze Richtung
km/h Bft. km/h Grad Sektor
So, 22.09. 2:00 9 2 13 190° S
So, 22.09. 1:40 11 2 - 190° S
So, 22.09. 1:30 7 2 14 250° W
So, 22.09. 1:20 7 2 - 250° W
So, 22.09. 1:10 7 2 - 230° SW
So, 22.09. 1:00 11 2 18 190° S
So, 22.09. 0:50 11 2 - 190° S
So, 22.09. 0:30 13 3 17 180° S
So, 22.09. 0:00 15 3 31 160° S
Sa, 21.09. 23:30 22 4 32 160° S
Sa, 21.09. 23:00 22 4 37 160° S
Ortszeit Untergrenze Bedeckung Gattung
total tief tief mittel hoch
So, 22.09. 2:00 6000 m 4/8 3/8 - - -
Sa, 21.09. 20:00 - 0/8 0/8 - - -
Sa, 21.09. 14:00 - 0/8 0/8 - - -
Sa, 21.09. 8:00 12000 m 0/8 0/8 - - -
Sa, 21.09. 2:00 - 0/8 0/8 - - -
Fr, 20.09. 20:00 - 0/8 0/8 - - -
Fr, 20.09. 14:00 12000 m 2/8 0/8 - - -
Fr, 20.09. 8:00 10500 m 1/8 0/8 - - -
Ortszeit Bedeckungsgrad in Achtel und Wolkenuntergrenze
So, 22.09. 2:00 3(6000m) 4(8100m)
So, 22.09. 1:40 3(8100m)
So, 22.09. 1:30 5(7800m) 4(8100m)
So, 22.09. 1:20 5(7800m)
So, 22.09. 1:10 7(7800m)
So, 22.09. 1:00 4(8100m)
So, 22.09. 0:50 4(8100m)
So, 22.09. 0:30 1(12000m)
So, 22.09. 0:00 keine Wolken
Sa, 21.09. 23:30 keine Wolken
Sa, 21.09. 23:00 keine Wolken
Ortszeit Stationsdruck (hPa) Tendenz (hPa in 3 Std.)
So, 22.09. 2:00 850 - 1,1
Sa, 21.09. 20:00 852 - 0,9
Sa, 21.09. 14:00 854 - 0,9
Sa, 21.09. 8:00 855 + 0,3
Sa, 21.09. 2:00 855 - 0,7
Fr, 20.09. 20:00 856 - 1,1
Fr, 20.09. 14:00 858 + 0,6
Fr, 20.09. 8:00 856 + 0,1
Ortszeit Stationsdruck (hPa) Tendenz (hPa in 3 Std.)
So, 22.09. 2:00 850 - 1,1
So, 22.09. 1:40 850 keine Meldung
So, 22.09. 1:30 850 - 1,2
So, 22.09. 1:20 850 keine Meldung
So, 22.09. 1:10 850 keine Meldung
So, 22.09. 1:00 850 - 1,2
So, 22.09. 0:50 850 keine Meldung
So, 22.09. 0:30 851 - 1,1
So, 22.09. 0:00 851 - 0,9
Sa, 21.09. 23:30 851 - 0,8
Sa, 21.09. 23:00 852 - 0,3
Ortszeit Schneehöhe (cm)
So, 22.09. 2:00 0
Sa, 21.09. 20:00 0
Sa, 21.09. 14:00 0
Sa, 21.09. 8:00 0
Sa, 21.09. 2:00 0
Fr, 20.09. 20:00 0
Fr, 20.09. 14:00 0
Fr, 20.09. 8:00 0
Ortszeit Schneehöhe (cm)
So, 22.09. 2:00 0
So, 22.09. 1:40 0
So, 22.09. 1:30 0
So, 22.09. 1:20 0
So, 22.09. 1:10 0
So, 22.09. 1:00 0
So, 22.09. 0:50 0
So, 22.09. 0:30 0
So, 22.09. 0:00 0
Sa, 21.09. 23:30 0
Sa, 21.09. 23:00 0
Link zu dieser Seite / Seite empfehlen

Das Wetter in ...